TAT21SB LIRN-LIBC
Flight info
| Callsign | TAT21SB |
|---|---|
| Flight time | N/A |
| Altitude | 19000 |
| Route | POLIT M620 ARBUM |
| Aircraft | AEST/L-SDFGRY/S |
Departure
| Time | 2026-05-04 21:15 |
|---|---|
| Airport | Naples International Airport (LIRN) |
Arrival
| Time | N/A |
|---|---|
| Airport | Crotone Sant'Anna Pythagoras Airport (LIBC) |
| Time | Latitude | Longitude | Altitude | Speed | Heading |
|---|---|---|---|---|---|
| 2026-05-04 21:09 | 40.88813 | 14.28803 | 263 ft | 0 kts | 79° |
| 2026-05-04 21:10 | 40.88787 | 14.28831 | 263 ft | 9 kts | 148° |
| 2026-05-04 21:10 | 40.88784 | 14.28834 | 263 ft | 0 kts | 130° |
| 2026-05-04 21:11 | 40.88782 | 14.28868 | 262 ft | 8 kts | 87° |
| 2026-05-04 21:11 | 40.88762 | 14.28938 | 261 ft | 10 kts | 118° |
| 2026-05-04 21:11 | 40.88753 | 14.29039 | 259 ft | 12 kts | 92° |
| 2026-05-04 21:11 | 40.88727 | 14.29141 | 257 ft | 11 kts | 135° |
| 2026-05-04 21:12 | 40.88708 | 14.29162 | 257 ft | 0 kts | 143° |
| 2026-05-04 21:12 | 40.88689 | 14.29180 | 257 ft | 12 kts | 144° |
| 2026-05-04 21:12 | 40.88701 | 14.29321 | 253 ft | 23 kts | 60° |
| 2026-05-04 21:12 | 40.88788 | 14.29510 | 249 ft | 25 kts | 57° |
| 2026-05-04 21:13 | 40.88887 | 14.29703 | 244 ft | 26 kts | 54° |
| 2026-05-04 21:13 | 40.88990 | 14.29895 | 238 ft | 26 kts | 54° |
| 2026-05-04 21:13 | 40.89090 | 14.30100 | 231 ft | 27 kts | 56° |
| 2026-05-04 21:13 | 40.89144 | 14.30197 | 226 ft | 5 kts | 38° |
| 2026-05-04 21:14 | 40.89091 | 14.30134 | 230 ft | 37 kts | 242° |
| 2026-05-04 21:14 | 40.88855 | 14.29598 | 247 ft | 89 kts | 239° |
| 2026-05-04 21:14 | 40.88500 | 14.28855 | 483 ft | 95 kts | 239° |
| 2026-05-04 21:14 | 40.88172 | 14.28176 | 883 ft | 90 kts | 243° |
| 2026-05-04 21:15 | 40.87865 | 14.27377 | 1109 ft | 102 kts | 243° |
| 2026-05-04 21:15 | 40.87420 | 14.26675 | 1416 ft | 100 kts | 222° |
| 2026-05-04 21:15 | 40.86871 | 14.26136 | 1708 ft | 101 kts | 209° |
| 2026-05-04 21:15 | 40.86239 | 14.25706 | 1975 ft | 100 kts | 200° |
| 2026-05-04 21:16 | 40.85545 | 14.25643 | 2179 ft | 107 kts | 164° |
| 2026-05-04 21:16 | 40.84836 | 14.25775 | 2511 ft | 97 kts | 184° |
| 2026-05-04 21:16 | 40.84179 | 14.25638 | 2771 ft | 95 kts | 191° |
| 2026-05-04 21:16 | 40.83535 | 14.25475 | 2992 ft | 94 kts | 190° |
| 2026-05-04 21:17 | 40.82900 | 14.25332 | 3184 ft | 92 kts | 189° |
| 2026-05-04 21:17 | 40.82272 | 14.25208 | 3355 ft | 91 kts | 187° |
| 2026-05-04 21:17 | 40.81645 | 14.25118 | 3515 ft | 90 kts | 176° |
| 2026-05-04 21:17 | 40.81029 | 14.25258 | 3672 ft | 90 kts | 171° |
| 2026-05-04 21:18 | 40.80409 | 14.25352 | 3824 ft | 89 kts | 181° |
| 2026-05-04 21:18 | 40.79789 | 14.25365 | 3968 ft | 90 kts | 178° |
| 2026-05-04 21:18 | 40.79167 | 14.25475 | 4137 ft | 91 kts | 160° |
| 2026-05-04 21:18 | 40.78574 | 14.25788 | 4312 ft | 92 kts | 160° |
| 2026-05-04 21:19 | 40.77976 | 14.26073 | 4490 ft | 91 kts | 164° |
| 2026-05-04 21:19 | 40.77371 | 14.26312 | 4631 ft | 90 kts | 165° |
| 2026-05-04 21:19 | 40.76764 | 14.26530 | 4725 ft | 90 kts | 168° |
| 2026-05-04 21:19 | 40.76153 | 14.26727 | 4817 ft | 90 kts | 168° |
| 2026-05-04 21:20 | 40.75541 | 14.26925 | 4898 ft | 91 kts | 168° |
| 2026-05-04 21:20 | 40.74928 | 14.27135 | 4972 ft | 92 kts | 167° |
| 2026-05-04 21:20 | 40.74322 | 14.27357 | 5070 ft | 89 kts | 165° |
| 2026-05-04 21:20 | 40.73770 | 14.27694 | 5155 ft | 89 kts | 159° |
| 2026-05-04 21:21 | 40.73172 | 14.27994 | 5290 ft | 95 kts | 165° |
| 2026-05-04 21:21 | 40.72523 | 14.28221 | 5516 ft | 97 kts | 169° |
| 2026-05-04 21:21 | 40.71860 | 14.28410 | 5761 ft | 98 kts | 171° |
| 2026-05-04 21:21 | 40.71195 | 14.28592 | 6008 ft | 97 kts | 170° |
| 2026-05-04 21:22 | 40.70536 | 14.28787 | 6241 ft | 97 kts | 169° |
| 2026-05-04 21:22 | 40.69878 | 14.29010 | 6476 ft | 98 kts | 167° |
| 2026-05-04 21:22 | 40.69223 | 14.29263 | 6689 ft | 98 kts | 165° |
| 2026-05-04 21:22 | 40.68791 | 14.29443 | 6827 ft | 98 kts | 165° |
| 2026-05-04 21:23 | 40.68140 | 14.29723 | 7033 ft | 99 kts | 165° |
| 2026-05-04 21:23 | 40.67485 | 14.29999 | 7232 ft | 99 kts | 166° |
| 2026-05-04 21:23 | 40.66826 | 14.30260 | 7429 ft | 99 kts | 167° |
| 2026-05-04 21:23 | 40.66162 | 14.30510 | 7623 ft | 99 kts | 167° |
| 2026-05-04 21:24 | 40.65496 | 14.30756 | 7810 ft | 99 kts | 167° |
| 2026-05-04 21:24 | 40.64829 | 14.31001 | 7995 ft | 100 kts | 167° |
| 2026-05-04 21:24 | 40.64160 | 14.31249 | 8176 ft | 100 kts | 167° |
| 2026-05-04 21:24 | 40.63489 | 14.31501 | 8352 ft | 100 kts | 167° |
| 2026-05-04 21:25 | 40.62597 | 14.31841 | 8570 ft | 101 kts | 167° |
| 2026-05-04 21:25 | 40.62139 | 14.32017 | 8693 ft | 102 kts | 167° |
| 2026-05-04 21:25 | 40.61458 | 14.32279 | 8857 ft | 102 kts | 167° |
| 2026-05-04 21:25 | 40.60776 | 14.32544 | 9026 ft | 102 kts | 167° |
| 2026-05-04 21:26 | 40.60091 | 14.32808 | 9181 ft | 103 kts | 167° |
| 2026-05-04 21:26 | 40.59404 | 14.33067 | 9344 ft | 103 kts | 167° |
| 2026-05-04 21:26 | 40.58717 | 14.33328 | 9508 ft | 103 kts | 167° |
| 2026-05-04 21:26 | 40.58020 | 14.33542 | 9661 ft | 103 kts | 169° |
| 2026-05-04 21:27 | 40.57357 | 14.33903 | 9806 ft | 105 kts | 151° |
| 2026-05-04 21:27 | 40.56795 | 14.34523 | 9943 ft | 107 kts | 136° |
| 2026-05-04 21:27 | 40.56316 | 14.35279 | 10081 ft | 108 kts | 131° |
| 2026-05-04 21:27 | 40.55863 | 14.36057 | 10211 ft | 109 kts | 131° |
| 2026-05-04 21:28 | 40.55386 | 14.36832 | 10345 ft | 109 kts | 134° |
| 2026-05-04 21:28 | 40.54863 | 14.37571 | 10475 ft | 109 kts | 139° |
| 2026-05-04 21:28 | 40.54311 | 14.38227 | 10599 ft | 108 kts | 144° |
| 2026-05-04 21:28 | 40.53719 | 14.38840 | 10720 ft | 108 kts | 146° |
| 2026-05-04 21:29 | 40.53115 | 14.39436 | 10839 ft | 109 kts | 146° |
| 2026-05-04 21:29 | 40.52516 | 14.40045 | 10953 ft | 109 kts | 144° |
| 2026-05-04 21:29 | 40.51934 | 14.40686 | 11063 ft | 109 kts | 142° |
| 2026-05-04 21:29 | 40.51366 | 14.41353 | 11174 ft | 110 kts | 140° |
| 2026-05-04 21:30 | 40.50802 | 14.42034 | 11280 ft | 110 kts | 140° |
| 2026-05-04 21:30 | 40.50239 | 14.42714 | 11391 ft | 110 kts | 140° |
| 2026-05-04 21:30 | 40.49671 | 14.43392 | 11490 ft | 110 kts | 141° |
| 2026-05-04 21:30 | 40.49096 | 14.44062 | 11586 ft | 111 kts | 141° |
| 2026-05-04 21:31 | 40.47930 | 14.45388 | 11783 ft | 111 kts | 142° |
| 2026-05-04 21:31 | 40.47343 | 14.46049 | 11877 ft | 111 kts | 142° |
| 2026-05-04 21:31 | 40.46758 | 14.46713 | 11969 ft | 111 kts | 142° |
| 2026-05-04 21:32 | 40.46173 | 14.47383 | 12060 ft | 112 kts | 141° |
| 2026-05-04 21:32 | 40.45591 | 14.48055 | 12148 ft | 111 kts | 141° |
| 2026-05-04 21:32 | 40.45007 | 14.48729 | 12232 ft | 112 kts | 141° |
| 2026-05-04 21:32 | 40.44423 | 14.49405 | 12313 ft | 112 kts | 141° |
| 2026-05-04 21:33 | 40.43835 | 14.50079 | 12397 ft | 112 kts | 141° |
| 2026-05-04 21:33 | 40.43248 | 14.50754 | 12472 ft | 112 kts | 141° |
| 2026-05-04 21:33 | 40.42660 | 14.51429 | 12552 ft | 112 kts | 141° |
| 2026-05-04 21:33 | 40.42069 | 14.52103 | 12623 ft | 113 kts | 141° |
| 2026-05-04 21:34 | 40.41478 | 14.52779 | 12694 ft | 113 kts | 141° |
| 2026-05-04 21:34 | 40.40887 | 14.53457 | 12764 ft | 113 kts | 140° |
| 2026-05-04 21:34 | 40.40294 | 14.54136 | 12832 ft | 113 kts | 141° |
| 2026-05-04 21:34 | 40.39701 | 14.54816 | 12900 ft | 113 kts | 141° |
| 2026-05-04 21:35 | 40.39108 | 14.55496 | 12962 ft | 113 kts | 141° |
| 2026-05-04 21:35 | 40.38514 | 14.56175 | 13024 ft | 113 kts | 141° |
| 2026-05-04 21:35 | 40.37920 | 14.56852 | 13083 ft | 113 kts | 141° |
| 2026-05-04 21:35 | 40.37326 | 14.57533 | 13143 ft | 114 kts | 141° |
| 2026-05-04 21:36 | 40.36730 | 14.58213 | 13198 ft | 113 kts | 140° |
| 2026-05-04 21:36 | 40.36134 | 14.58895 | 13254 ft | 114 kts | 140° |
| 2026-05-04 21:36 | 40.35528 | 14.59591 | 13293 ft | 119 kts | 140° |
| 2026-05-04 21:36 | 40.34894 | 14.60313 | 13392 ft | 122 kts | 141° |
| 2026-05-04 21:37 | 40.34226 | 14.61072 | 13430 ft | 132 kts | 140° |
| 2026-05-04 21:37 | 40.33515 | 14.61884 | 13491 ft | 138 kts | 140° |
| 2026-05-04 21:37 | 40.32777 | 14.62728 | 13557 ft | 145 kts | 140° |
| 2026-05-04 21:37 | 40.31981 | 14.63638 | 13530 ft | 158 kts | 140° |
| 2026-05-04 21:38 | 40.31125 | 14.64616 | 13491 ft | 168 kts | 140° |
| 2026-05-04 21:38 | 40.30224 | 14.65644 | 13490 ft | 175 kts | 140° |
| 2026-05-04 21:38 | 40.29290 | 14.66709 | 13481 ft | 181 kts | 140° |
| 2026-05-04 21:38 | 40.28333 | 14.67803 | 13501 ft | 184 kts | 140° |
| 2026-05-04 21:39 | 40.27361 | 14.68911 | 13534 ft | 186 kts | 140° |
| 2026-05-04 21:39 | 40.26370 | 14.70038 | 13505 ft | 192 kts | 140° |
| 2026-05-04 21:39 | 40.25352 | 14.71199 | 13544 ft | 194 kts | 140° |
| 2026-05-04 21:39 | 40.24347 | 14.72344 | 13716 ft | 190 kts | 140° |
| 2026-05-04 21:40 | 40.23339 | 14.73488 | 13776 ft | 194 kts | 140° |
| 2026-05-04 21:40 | 40.22318 | 14.74647 | 13870 ft | 193 kts | 140° |
| 2026-05-04 21:40 | 40.21310 | 14.75787 | 13983 ft | 191 kts | 140° |
| 2026-05-04 21:40 | 40.20291 | 14.76944 | 13966 ft | 196 kts | 140° |
| 2026-05-04 21:41 | 40.19249 | 14.78084 | 14040 ft | 194 kts | 141° |
| 2026-05-04 21:41 | 40.18230 | 14.79227 | 14091 ft | 194 kts | 139° |
| 2026-05-04 21:41 | 40.17221 | 14.80410 | 14104 ft | 195 kts | 139° |
| 2026-05-04 21:41 | 40.16213 | 14.81592 | 14173 ft | 194 kts | 139° |
| 2026-05-04 21:42 | 40.15212 | 14.82741 | 14202 ft | 195 kts | 140° |
| 2026-05-04 21:42 | 40.14184 | 14.83895 | 14234 ft | 195 kts | 140° |
| 2026-05-04 21:42 | 40.13158 | 14.85048 | 14284 ft | 194 kts | 140° |
| 2026-05-04 21:42 | 40.12132 | 14.86203 | 14324 ft | 193 kts | 140° |
| 2026-05-04 21:43 | 40.11138 | 14.87332 | 14405 ft | 193 kts | 140° |
| 2026-05-04 21:43 | 40.10099 | 14.88499 | 14332 ft | 198 kts | 142° |
| 2026-05-04 21:43 | 40.08972 | 14.89647 | 14138 ft | 209 kts | 143° |
| 2026-05-04 21:43 | 40.07790 | 14.90801 | 13893 ft | 221 kts | 146° |
| 2026-05-04 21:44 | 40.06469 | 14.91904 | 13619 ft | 228 kts | 151° |
| 2026-05-04 21:44 | 40.05144 | 14.93038 | 13492 ft | 228 kts | 140° |
| 2026-05-04 21:44 | 40.04099 | 14.94574 | 13389 ft | 226 kts | 124° |
| 2026-05-04 21:44 | 40.03248 | 14.96291 | 13322 ft | 224 kts | 123° |
| 2026-05-04 21:45 | 40.02317 | 14.97912 | 13238 ft | 223 kts | 131° |
| 2026-05-04 21:45 | 40.01212 | 14.99328 | 13135 ft | 223 kts | 141° |
| 2026-05-04 21:45 | 39.99970 | 15.00514 | 13120 ft | 219 kts | 147° |
| 2026-05-04 21:45 | 39.98683 | 15.01558 | 13110 ft | 216 kts | 149° |
| 2026-05-04 21:46 | 39.97420 | 15.02606 | 13110 ft | 214 kts | 146° |
| 2026-05-04 21:46 | 39.96233 | 15.03763 | 13108 ft | 213 kts | 141° |
| 2026-05-04 21:46 | 39.95136 | 15.05042 | 13119 ft | 211 kts | 137° |
| 2026-05-04 21:46 | 39.94094 | 15.06381 | 13117 ft | 210 kts | 135° |
| 2026-05-04 21:47 | 39.93076 | 15.07707 | 13119 ft | 209 kts | 136° |
| 2026-05-04 21:47 | 39.92030 | 15.09025 | 13119 ft | 209 kts | 137° |
| 2026-05-04 21:47 | 39.90953 | 15.10296 | 13122 ft | 209 kts | 139° |
| 2026-05-04 21:47 | 39.89850 | 15.11511 | 13122 ft | 208 kts | 141° |
| 2026-05-04 21:48 | 39.88722 | 15.12700 | 13122 ft | 208 kts | 142° |
| 2026-05-04 21:48 | 39.87595 | 15.13880 | 13120 ft | 208 kts | 141° |
| 2026-05-04 21:48 | 39.86481 | 15.15076 | 13122 ft | 208 kts | 140° |
| 2026-05-04 21:48 | 39.85386 | 15.16298 | 13122 ft | 207 kts | 139° |
| 2026-05-04 21:49 | 39.84303 | 15.17542 | 13122 ft | 207 kts | 139° |
| 2026-05-04 21:49 | 39.83226 | 15.18791 | 13121 ft | 207 kts | 139° |
| 2026-05-04 21:49 | 39.82147 | 15.20034 | 13119 ft | 207 kts | 139° |
| 2026-05-04 21:49 | 39.81063 | 15.21269 | 13120 ft | 207 kts | 140° |
| 2026-05-04 21:50 | 39.79965 | 15.22483 | 13116 ft | 207 kts | 141° |
| 2026-05-04 21:50 | 39.78857 | 15.23686 | 13122 ft | 207 kts | 140° |
| 2026-05-04 21:50 | 39.77756 | 15.24893 | 13124 ft | 207 kts | 140° |
| 2026-05-04 21:50 | 39.76664 | 15.26113 | 13123 ft | 207 kts | 139° |
| 2026-05-04 21:51 | 39.75575 | 15.27345 | 13122 ft | 207 kts | 139° |
| 2026-05-04 21:51 | 39.74491 | 15.28576 | 13122 ft | 207 kts | 139° |
| 2026-05-04 21:51 | 39.73405 | 15.29808 | 13124 ft | 207 kts | 139° |
| 2026-05-04 21:51 | 39.72316 | 15.31033 | 13125 ft | 207 kts | 140° |
| 2026-05-04 21:52 | 39.71210 | 15.32234 | 13122 ft | 207 kts | 142° |
| 2026-05-04 21:52 | 39.70147 | 15.33494 | 13124 ft | 207 kts | 131° |
| 2026-05-04 21:52 | 39.69342 | 15.35039 | 13122 ft | 207 kts | 116° |
| 2026-05-04 21:52 | 39.68792 | 15.36730 | 13123 ft | 206 kts | 111° |
| 2026-05-04 21:53 | 39.68236 | 15.38447 | 13123 ft | 206 kts | 113° |
| 2026-05-04 21:53 | 39.67641 | 15.40143 | 13123 ft | 206 kts | 115° |